Baker, Montana
Current Conditions -  °F | °C
As of 6:51 AM on Thursday 30 Oct 2014 (Local Time) from KBHK Reporting Station
Overcast Overcast  
Wind Chill: 26°   Ceiling: 400
Heat Index: 33°   Visibility: 7mi
Dew Point: 32°   Wind: 8mph
Humidity: 96%   Direction: 360°N
Pressure: 30.27"   Gusts: NA
Location:  46.37°N, 104.28°W
Report Text: KBHK 301251Z AUTO 36007KT 7SM OVC004 01/00 A3027 RMK AO2 SLP269 T00060000
Loading
Personal Weather Stations






























Interactive Weather Map
Tropical Storm Tracking
New forecast layout! Learn more

10-Day Weather Forecast

Advertisements
Track Severe Weather on mobile